createdAt,value
2022-12-31T00:01:17.557Z,11.962499999999999
2022-12-31T00:04:17.175Z,10.6875
2022-12-31T00:07:17.045Z,8
2022-12-31T00:11:16.252Z,9.3
2022-12-31T00:14:16.156Z,12.05
2022-12-31T00:17:16.277Z,9.75
2022-12-31T00:21:17.331Z,11.225
2022-12-31T00:24:16.423Z,11.175
2022-12-31T00:27:16.970Z,8.9125
2022-12-31T00:31:20.925Z,7.5625
2022-12-31T00:34:16.212Z,6.975
2022-12-31T00:37:16.226Z,9.3375
2022-12-31T00:41:17.803Z,11.8375
2022-12-31T00:44:17.145Z,10.025
2022-12-31T00:47:16.872Z,8.087499999999999
2022-12-31T00:51:18.994Z,8.075
2022-12-31T00:54:16.567Z,15.075
2022-12-31T00:57:16.669Z,8.725
2022-12-31T01:01:18.227Z,10.7375
2022-12-31T01:04:18.813Z,14.45
2022-12-31T01:07:16.239Z,9.7625
2022-12-31T01:11:24.291Z,6.775
2022-12-31T01:14:18.650Z,6.949999999999999
2022-12-31T01:17:17.376Z,5.8999999999999995
2022-12-31T01:21:17.158Z,7.325
2022-12-31T01:24:16.996Z,7.112500000000001
2022-12-31T01:27:16.031Z,6.425
2022-12-31T01:31:19.381Z,9.55
2022-12-31T01:34:16.697Z,14.7
2022-12-31T01:37:16.459Z,8.912500000000001
2022-12-31T01:41:20.700Z,7.3375
2022-12-31T01:44:52.639Z,5.15
2022-12-31T01:47:22.790Z,7.6125
2022-12-31T01:51:16.319Z,10.5
2022-12-31T01:54:19.790Z,4.8375
2022-12-31T01:57:17.480Z,7.55
2022-12-31T02:01:24.869Z,8.8625
2022-12-31T02:04:16.728Z,15.674999999999999
2022-12-31T02:07:16.721Z,7.2125
2022-12-31T02:11:23.999Z,10.825
2022-12-31T02:14:19.804Z,9.425
2022-12-31T02:17:25.647Z,6.7875000000000005
2022-12-31T02:21:32.244Z,7.4375
2022-12-31T02:31:20.901Z,13.1375
2022-12-31T02:34:24.858Z,9.225000000000001
2022-12-31T02:37:19.154Z,7.0375
2022-12-31T02:41:51.346Z,10.5375
2022-12-31T02:44:21.892Z,5.1625
2022-12-31T02:47:29.829Z,21.599999999999998
2022-12-31T02:51:32.185Z,6.6
2022-12-31T02:54:27.813Z,5.4
2022-12-31T02:57:24.221Z,6.8125
2022-12-31T03:02:22.926Z,10.462499999999999
2022-12-31T03:04:51.222Z,5.7
2022-12-31T03:07:20.302Z,11.7875
2022-12-31T03:12:47.023Z,7.800000000000001
2022-12-31T03:14:16.506Z,6.625
2022-12-31T03:17:16.723Z,8.1
2022-12-31T03:31:16.529Z,8.4375
2022-12-31T03:34:16.651Z,3.85
2022-12-31T03:37:16.720Z,8.8625
2022-12-31T03:41:16.183Z,8.45
2022-12-31T03:44:16.753Z,8.037500000000001
2022-12-31T03:47:16.637Z,9.075
2022-12-31T03:51:17.187Z,10.225
2022-12-31T03:54:16.985Z,5.2625
2022-12-31T03:57:16.801Z,8
2022-12-31T04:01:15.897Z,5.4624999999999995
2022-12-31T04:04:16.326Z,14.399999999999999
2022-12-31T04:07:16.336Z,8.975
2022-12-31T04:11:20.646Z,10.3625
2022-12-31T04:14:17.360Z,6.812499999999999
2022-12-31T04:17:16.292Z,9.2125
2022-12-31T04:21:15.688Z,8.725
2022-12-31T04:24:16.245Z,5.0625
2022-12-31T04:27:16.160Z,8.025
2022-12-31T04:31:16.654Z,9.175
2022-12-31T04:34:16.573Z,7.7124999999999995
2022-12-31T04:37:16.485Z,6.887499999999999
2022-12-31T04:41:19.312Z,5.95
2022-12-31T04:44:17.147Z,8.1125
2022-12-31T04:47:21.741Z,5.75
2022-12-31T04:51:16.004Z,4.675
2022-12-31T04:54:16.251Z,9.6
2022-12-31T04:57:16.135Z,7.924999999999999
2022-12-31T05:01:16.160Z,9.3625
2022-12-31T05:04:16.153Z,7.112500000000001
2022-12-31T05:07:16.142Z,8.899999999999999
2022-12-31T05:11:16.423Z,10.6375
2022-12-31T05:14:17.401Z,7.9750000000000005
2022-12-31T05:17:16.408Z,8.5625
2022-12-31T05:21:19.505Z,10.037500000000001
2022-12-31T05:24:16.345Z,4.85
2022-12-31T05:27:16.373Z,7.375
2022-12-31T05:31:16.069Z,8.649999999999999
2022-12-31T05:34:16.453Z,5.4624999999999995
2022-12-31T05:37:16.352Z,6.737500000000001
2022-12-31T05:41:15.617Z,6.45
2022-12-31T05:44:16.101Z,4.0375
2022-12-31T05:47:16.533Z,8.1
2022-12-31T05:51:16.423Z,7.725
2022-12-31T05:54:16.835Z,5.6000000000000005
2022-12-31T05:57:16.914Z,6.2875
2022-12-31T06:01:16.168Z,7.875
2022-12-31T06:04:16.833Z,11.3625
2022-12-31T06:07:16.693Z,6.6875
2022-12-31T06:11:16.112Z,6.550000000000001
2022-12-31T06:14:16.588Z,6.75
2022-12-31T06:17:16.310Z,8.0125
2022-12-31T06:21:17.031Z,5.875
2022-12-31T06:24:17.026Z,5.4
2022-12-31T06:27:16.853Z,4.2125
2022-12-31T06:31:16.271Z,7.325
2022-12-31T06:34:16.758Z,8.25
2022-12-31T06:37:16.678Z,9.9875
2022-12-31T06:41:16.410Z,12.8375
2022-12-31T06:44:16.312Z,5.975
2022-12-31T06:47:16.301Z,10.5875
2022-12-31T06:51:17.893Z,3.6500000000000004
2022-12-31T06:54:16.191Z,4.2875000000000005
2022-12-31T06:57:16.546Z,7
2022-12-31T07:02:14.612Z,9.75
2022-12-31T07:11:20.656Z,6.975
2022-12-31T07:14:28.015Z,7.75
2022-12-31T07:17:31.139Z,5.8625
2022-12-31T07:21:20.817Z,12.3875
2022-12-31T07:24:16.948Z,8.175
2022-12-31T07:27:35.264Z,6.050000000000001
2022-12-31T07:31:28.357Z,15.4375
2022-12-31T07:34:24.721Z,6.825
2022-12-31T07:37:28.487Z,8.7625
2022-12-31T07:41:25.384Z,7.2
2022-12-31T07:44:31.113Z,7.0874999999999995
2022-12-31T07:47:22.250Z,8.425
2022-12-31T07:51:16.990Z,9.725
2022-12-31T07:54:17.045Z,5.424999999999999
2022-12-31T07:57:19.571Z,4.75
2022-12-31T08:01:28.743Z,5.4375
2022-12-31T08:04:26.612Z,7.7625
2022-12-31T08:07:27.852Z,6.3375
2022-12-31T08:11:24.305Z,8.975000000000001
2022-12-31T08:14:17.938Z,7.449999999999999
2022-12-31T08:17:18.647Z,5.5
2022-12-31T08:21:34.521Z,7.3
2022-12-31T08:24:22.120Z,7.7625
2022-12-31T08:27:23.260Z,7.225
2022-12-31T08:31:20.260Z,4.9
2022-12-31T08:34:25.425Z,2.6125
2022-12-31T08:37:24.170Z,11.4875
2022-12-31T08:41:22.979Z,10.5375
2022-12-31T08:44:26.341Z,3.5625
2022-12-31T08:47:27.972Z,7.0874999999999995
2022-12-31T08:51:19.333Z,11.675
2022-12-31T08:54:16.446Z,9.875
2022-12-31T08:57:25.955Z,7.9125
2022-12-31T09:01:24.154Z,7.525
2022-12-31T09:04:24.877Z,5.875
2022-12-31T09:07:23.948Z,3.975
2022-12-31T09:11:23.536Z,5.3
2022-12-31T09:14:38.286Z,5.949999999999999
2022-12-31T09:17:41.958Z,7.4375
2022-12-31T09:21:16.513Z,5.225
2022-12-31T09:24:17.145Z,9.55
2022-12-31T09:27:27.783Z,5
2022-12-31T09:31:26.327Z,7.949999999999999
2022-12-31T09:34:22.940Z,5.475
2022-12-31T09:37:24.771Z,9.899999999999999
2022-12-31T09:41:31.438Z,11.25
2022-12-31T09:45:30.034Z,4.5875
2022-12-31T09:51:26.866Z,9.537500000000001
2022-12-31T09:54:28.321Z,4.925
2022-12-31T09:57:31.165Z,23.875
2022-12-31T10:01:27.204Z,4.3375
2022-12-31T10:05:13.203Z,10.899999999999999
2022-12-31T10:07:32.147Z,10.7625
2022-12-31T10:11:26.326Z,10.55
2022-12-31T10:14:32.955Z,24.1625
2022-12-31T10:17:29.931Z,14.4
2022-12-31T10:21:30.980Z,13.825000000000001
2022-12-31T10:24:33.401Z,8.7
2022-12-31T10:27:27.030Z,5.699999999999999
2022-12-31T10:31:25.857Z,8.7625
2022-12-31T10:34:24.712Z,8.8
2022-12-31T10:37:18.923Z,5.025
2022-12-31T10:41:48.960Z,8
2022-12-31T10:45:43.221Z,11.7875
2022-12-31T10:51:47.657Z,8.1375
2022-12-31T11:01:25.349Z,5.6125
2022-12-31T11:04:40.125Z,11.3
2022-12-31T11:11:27.701Z,9.825
2022-12-31T11:14:47.584Z,9.525
2022-12-31T11:17:35.473Z,11.9625
2022-12-31T11:21:28.653Z,6.875
2022-12-31T11:24:32.210Z,9.6375
2022-12-31T11:27:36.556Z,8.4875
2022-12-31T11:31:31.914Z,6.387499999999999
2022-12-31T11:34:30.503Z,11.7
2022-12-31T11:37:28.720Z,8
2022-12-31T11:41:24.443Z,8.0875
2022-12-31T11:44:30.969Z,7.4
2022-12-31T11:47:44.667Z,17.1875
2022-12-31T11:51:35.902Z,6.05
2022-12-31T12:11:23.027Z,15.55
2022-12-31T12:14:20.861Z,7.1125
2022-12-31T12:17:25.785Z,8.075
2022-12-31T12:21:19.300Z,9.7875
2022-12-31T12:24:20.325Z,7.2125
2022-12-31T12:27:21.990Z,13.625
2022-12-31T12:31:20.047Z,8.875
2022-12-31T12:34:23.211Z,7.1625
2022-12-31T12:37:30.339Z,13.662500000000001
2022-12-31T12:41:22.532Z,4.8
2022-12-31T12:44:17.010Z,7.500000000000001
2022-12-31T12:47:18.443Z,6.0875
2022-12-31T12:51:30.944Z,11.6125
2022-12-31T12:54:34.604Z,9.125
2022-12-31T12:57:22.272Z,15.2875
2022-12-31T13:01:26.317Z,5.8625
2022-12-31T13:05:02.429Z,11.7625
2022-12-31T13:07:32.077Z,14.412500000000001
2022-12-31T13:11:28.973Z,14.975000000000001
2022-12-31T13:14:24.653Z,9.350000000000001
2022-12-31T13:17:34.195Z,7.15
2022-12-31T13:21:28.307Z,9.1375
2022-12-31T13:24:27.330Z,8.475
2022-12-31T13:27:26.419Z,5.8125
2022-12-31T13:31:20.803Z,7.6875
2022-12-31T13:34:20.285Z,13.6875
2022-12-31T13:37:28.138Z,6.9
2022-12-31T13:41:21.884Z,8.275
2022-12-31T13:44:24.179Z,14.15
2022-12-31T13:47:25.220Z,7.050000000000001
2022-12-31T14:01:21.988Z,4.9375
2022-12-31T14:04:23.919Z,7.475
2022-12-31T14:07:21.437Z,8
2022-12-31T14:11:24.738Z,6.887499999999999
2022-12-31T14:14:28.041Z,6.324999999999999
2022-12-31T14:17:25.849Z,7.325
2022-12-31T14:21:22.965Z,5.8999999999999995
2022-12-31T14:24:29.755Z,7.1375
2022-12-31T14:27:20.943Z,11.6875
2022-12-31T14:31:27.457Z,8.899999999999999
2022-12-31T14:34:24.733Z,7.2124999999999995
2022-12-31T14:37:26.350Z,5.2875
2022-12-31T14:41:32.610Z,13.925
2022-12-31T14:44:28.890Z,8.425
2022-12-31T14:47:29.910Z,8.2625
2022-12-31T14:51:16.119Z,9.1625
2022-12-31T14:54:28.889Z,8.6875
2022-12-31T14:57:23.294Z,5.6625
2022-12-31T15:01:19.754Z,12.0625
2022-12-31T15:04:31.344Z,5.3375
2022-12-31T15:07:24.057Z,9.375
2022-12-31T15:11:31.241Z,9.125
2022-12-31T15:14:59.396Z,8.025
2022-12-31T15:17:30.132Z,9.6875
2022-12-31T15:21:32.452Z,10.7625
2022-12-31T15:24:19.941Z,5.574999999999999
2022-12-31T15:27:32.185Z,10.587499999999999
2022-12-31T15:31:19.910Z,9.2875
2022-12-31T15:34:25.443Z,9.537500000000001
2022-12-31T15:37:29.777Z,7.5
2022-12-31T15:41:26.485Z,16.7875
2022-12-31T15:44:23.468Z,13.375
2022-12-31T15:47:25.670Z,11.55
2022-12-31T15:51:21.741Z,19.5
2022-12-31T15:54:24.482Z,12.725000000000001
2022-12-31T15:57:20.003Z,25.05
2022-12-31T16:01:20.053Z,18.887500000000003
2022-12-31T16:04:19.691Z,10.2625
2022-12-31T16:07:17.652Z,17.6625
2022-12-31T16:11:16.762Z,35.5
2022-12-31T16:14:21.399Z,16.425
2022-12-31T16:17:26.463Z,18.5625
2022-12-31T16:21:23.789Z,14.4875
2022-12-31T16:24:27.440Z,17.85
2022-12-31T16:27:17.093Z,10.599999999999998
2022-12-31T16:31:18.746Z,30.9625
2022-12-31T16:34:19.670Z,23.0875
2022-12-31T16:37:19.084Z,58.3125
2022-12-31T16:41:18.662Z,39.625
2022-12-31T16:44:26.074Z,48.425
2022-12-31T16:47:20.393Z,51.1875
2022-12-31T16:51:20.245Z,45.425
2022-12-31T16:54:19.589Z,40.625
2022-12-31T16:57:20.598Z,22.225
2022-12-31T17:01:18.903Z,14.787500000000001
2022-12-31T17:04:19.693Z,26.475
2022-12-31T17:07:49.095Z,15.524999999999999
2022-12-31T17:11:23.508Z,13.325
2022-12-31T17:14:19.270Z,9.649999999999999
2022-12-31T17:17:22.018Z,21.775
2022-12-31T17:21:16.409Z,16.35
2022-12-31T17:24:16.238Z,12.1125
2022-12-31T17:27:16.713Z,28.0875
2022-12-31T17:31:34.168Z,21.450000000000003
2022-12-31T17:34:29.024Z,22.175
2022-12-31T17:37:19.028Z,17.2625
2022-12-31T17:41:24.493Z,14.975
2022-12-31T17:44:19.715Z,12.6875
2022-12-31T17:47:16.843Z,14.25
2022-12-31T17:51:15.925Z,9.85
2022-12-31T17:54:17.319Z,17.9375
2022-12-31T17:57:25.542Z,13.387500000000001
2022-12-31T18:01:18.683Z,46.025000000000006
2022-12-31T18:04:17.536Z,120.7875
2022-12-31T18:07:16.018Z,131.675
2022-12-31T18:11:19.054Z,117.65
2022-12-31T18:14:16.394Z,74.75
2022-12-31T18:17:16.895Z,47.1125
2022-12-31T18:21:28.358Z,24.987499999999997
2022-12-31T18:24:24.260Z,13.375
2022-12-31T18:27:18.111Z,11.100000000000001
2022-12-31T18:31:20.423Z,21.387500000000003
2022-12-31T18:34:17.662Z,17.237499999999997
2022-12-31T18:37:21.780Z,14.462499999999999
2022-12-31T18:41:18.524Z,14.95
2022-12-31T18:44:16.964Z,22.3875
2022-12-31T18:47:18.843Z,32.4375
2022-12-31T18:51:18.850Z,34.575
2022-12-31T18:54:16.460Z,23.412499999999998
2022-12-31T18:57:16.631Z,24.487499999999997
2022-12-31T19:01:24.882Z,14.1875
2022-12-31T19:04:26.607Z,13.387500000000001
2022-12-31T19:07:17.185Z,11.2375
2022-12-31T19:11:17.615Z,14.412500000000001
2022-12-31T19:14:21.555Z,10
2022-12-31T19:17:18.204Z,10.225000000000001
2022-12-31T19:21:20.107Z,17.8375
2022-12-31T19:24:20.105Z,19.025
2022-12-31T19:27:17.423Z,17.2625
2022-12-31T19:31:17.608Z,16.475
2022-12-31T19:34:17.355Z,18.25
2022-12-31T19:37:17.268Z,18.825
2022-12-31T19:41:19.105Z,15.462499999999999
2022-12-31T19:44:19.212Z,12.2125
2022-12-31T19:47:17.360Z,11.600000000000001
2022-12-31T19:51:20.277Z,16.9875
2022-12-31T19:54:16.979Z,19.2875
2022-12-31T19:57:17.050Z,21.225
2022-12-31T20:01:24.057Z,22.3125
2022-12-31T20:04:22.191Z,13.575000000000001
2022-12-31T20:07:26.975Z,12.4875
2022-12-31T20:11:19.354Z,15.575
2022-12-31T20:14:16.720Z,22.075
2022-12-31T20:17:16.661Z,26.225
2022-12-31T20:21:19.816Z,23.175
2022-12-31T20:24:16.888Z,21.275
2022-12-31T20:27:18.763Z,31.8625
2022-12-31T20:31:18.537Z,28.200000000000003
2022-12-31T20:34:16.535Z,23.9625
2022-12-31T20:37:16.719Z,25.175
2022-12-31T20:41:18.099Z,34.5125
2022-12-31T20:44:16.643Z,29.849999999999998
2022-12-31T20:47:16.514Z,17.9375
2022-12-31T20:51:18.665Z,11.675
2022-12-31T20:54:17.238Z,18.7375
2022-12-31T20:57:17.266Z,14.375
2022-12-31T21:01:17.188Z,18.775
2022-12-31T21:04:16.821Z,19.275
2022-12-31T21:07:16.583Z,21.875
2022-12-31T21:21:16.657Z,19
2022-12-31T21:41:51.480Z,17.1
2022-12-31T21:44:17.346Z,27.450000000000003
2022-12-31T21:48:22.214Z,27.7875
2022-12-31T21:51:17.684Z,456.8375
2022-12-31T21:56:09.311Z,220.13750000000002
2022-12-31T21:57:16.697Z,56.8125
2022-12-31T22:11:17.948Z,36.5625
2022-12-31T22:14:16.933Z,28.349999999999998
2022-12-31T22:17:16.660Z,16.5
2022-12-31T22:21:20.234Z,42.349999999999994
2022-12-31T22:24:17.033Z,19
2022-12-31T22:27:28.842Z,14.9375
2022-12-31T22:31:19.537Z,28.8875
2022-12-31T22:34:17.464Z,27.5625
2022-12-31T22:37:46.385Z,17.237499999999997
2022-12-31T22:41:18.082Z,13.075
2022-12-31T22:44:17.265Z,14.175
2022-12-31T22:47:16.576Z,32.6875
2022-12-31T22:51:17.105Z,26.425
2022-12-31T22:54:16.576Z,26.6375
2022-12-31T22:57:20.052Z,10.9375
2022-12-31T23:01:18.813Z,144.41250000000002
2022-12-31T23:04:17.501Z,588.4
2022-12-31T23:07:16.141Z,571.725
2022-12-31T23:11:16.693Z,97.2125
2022-12-31T23:31:16.269Z,94.2625
2022-12-31T23:34:16.759Z,96.85
2022-12-31T23:37:16.529Z,85.2125
2022-12-31T23:41:18.840Z,42.475
2022-12-31T23:44:16.191Z,58.7125
2022-12-31T23:47:16.117Z,71.53750000000001
2022-12-31T23:51:15.909Z,47.2
2022-12-31T23:54:17.900Z,26.1875
2022-12-31T23:57:16.429Z,29.0375
